createdAt,value
2022-08-07T00:02:37.414Z,100.00
2022-08-07T00:04:16.872Z,100.00
2022-08-07T00:06:52.831Z,100.00
2022-08-07T00:09:26.635Z,100.00
2022-08-07T00:12:01.787Z,100.00
2022-08-07T00:14:31.737Z,100.00
2022-08-07T00:17:02.396Z,100.00
2022-08-07T00:19:59.736Z,100.00
2022-08-07T00:22:24.657Z,100.00
2022-08-07T00:25:06.931Z,100.00
2022-08-07T00:27:52.627Z,100.00
2022-08-07T00:30:27.025Z,100.00
2022-08-07T00:32:58.173Z,100.00
2022-08-07T00:35:29.869Z,100.00
2022-08-07T00:37:59.087Z,100.00
2022-08-07T00:40:36.978Z,100.00
2022-08-07T00:44:00.786Z,100.00
2022-08-07T00:45:59.509Z,100.00
2022-08-07T00:48:32.090Z,100.00
2022-08-07T00:51:02.972Z,100.00
2022-08-07T00:53:44.158Z,100.00
2022-08-07T00:56:18.847Z,100.00
2022-08-07T00:58:49.596Z,100.00
2022-08-07T01:01:21.150Z,100.00
2022-08-07T01:03:56.412Z,100.00
2022-08-07T01:06:31.011Z,100.00
2022-08-07T01:09:02.824Z,100.00
2022-08-07T01:12:27.671Z,100.00
2022-08-07T01:14:28.583Z,100.00
2022-08-07T01:16:59.131Z,100.00
2022-08-07T01:19:32.230Z,100.00
2022-08-07T01:22:08.814Z,100.00
2022-08-07T01:24:42.909Z,100.00
2022-08-07T01:27:19.427Z,100.00
2022-08-07T01:29:50.574Z,100.00
2022-08-07T01:32:22.413Z,100.00
2022-08-07T01:34:55.617Z,100.00
2022-08-07T01:37:28.032Z,100.00
2022-08-07T01:40:02.249Z,100.00
2022-08-07T01:42:39.442Z,100.00
2022-08-07T01:45:26.688Z,100.00
2022-08-07T01:48:18.320Z,100.00
2022-08-07T01:50:58.252Z,100.00
2022-08-07T01:54:09.170Z,100.00
2022-08-07T01:56:29.037Z,100.00
2022-08-07T01:59:09.178Z,100.00
2022-08-07T02:02:04.209Z,100.00
2022-08-07T02:04:56.223Z,100.00
2022-08-07T02:07:50.373Z,100.00
2022-08-07T02:10:28.859Z,100.00
2022-08-07T02:13:04.250Z,100.00
2022-08-07T02:15:44.752Z,100.00
2022-08-07T02:18:14.916Z,100.00
2022-08-07T02:20:51.981Z,100.00
2022-08-07T02:23:27.979Z,100.00
2022-08-07T02:26:30.953Z,100.00
2022-08-07T02:28:50.456Z,100.00
2022-08-07T02:31:28.710Z,100.00
2022-08-07T02:34:03.862Z,100.00
2022-08-07T02:36:36.164Z,100.00
2022-08-07T02:39:17.185Z,100.00
2022-08-07T02:42:03.037Z,100.00
2022-08-07T02:44:45.817Z,100.00
2022-08-07T02:47:45.393Z,100.00
2022-08-07T02:50:14.569Z,100.00
2022-08-07T02:52:47.812Z,100.00
2022-08-07T02:55:28.790Z,100.00
2022-08-07T02:58:22.309Z,100.00
2022-08-07T03:01:00.494Z,100.00
2022-08-07T03:03:49.239Z,100.00
2022-08-07T03:06:32.092Z,100.00
2022-08-07T03:09:04.674Z,100.00
2022-08-07T03:11:38.920Z,100.00
2022-08-07T03:14:12.162Z,100.00
2022-08-07T03:16:42.692Z,100.00
2022-08-07T03:19:11.881Z,100.00
2022-08-07T03:21:50.533Z,100.00
2022-08-07T03:24:25.818Z,100.00
2022-08-07T03:26:59.630Z,100.00
2022-08-07T03:29:44.669Z,100.00
2022-08-07T03:32:29.540Z,100.00
2022-08-07T03:35:17.762Z,100.00
2022-08-07T03:38:01.711Z,100.00
2022-08-07T03:40:36.686Z,100.00
2022-08-07T03:43:14.781Z,100.00
2022-08-07T03:45:53.961Z,100.00
2022-08-07T03:48:26.829Z,100.00
2022-08-07T03:50:59.885Z,100.00
2022-08-07T03:54:05.933Z,100.00
2022-08-07T03:56:32.812Z,100.00
2022-08-07T03:59:08.545Z,100.00
2022-08-07T04:01:45.531Z,100.00
2022-08-07T04:04:18.447Z,100.00
2022-08-07T04:06:52.142Z,100.00
2022-08-07T04:09:38.016Z,100.00
2022-08-07T04:12:24.812Z,100.00
2022-08-07T04:15:00.383Z,100.00
2022-08-07T04:18:58.005Z,100.00
2022-08-07T04:20:23.421Z,100.00
2022-08-07T04:23:01.785Z,100.00
2022-08-07T04:25:39.087Z,100.00
2022-08-07T04:28:13.319Z,100.00
2022-08-07T04:30:55.259Z,100.00
2022-08-07T04:33:31.776Z,100.00
2022-08-07T04:36:06.380Z,100.00
2022-08-07T04:38:37.273Z,100.00
2022-08-07T04:41:06.692Z,100.00
2022-08-07T04:44:10.711Z,100.00
2022-08-07T04:46:59.633Z,100.00
2022-08-07T04:49:57.477Z,100.00
2022-08-07T04:52:37.922Z,100.00
2022-08-07T04:58:24.121Z,100.00
2022-08-07T04:58:47.469Z,100.00
2022-08-07T05:01:22.834Z,100.00
2022-08-07T05:04:17.780Z,100.00
2022-08-07T05:06:57.681Z,100.00
2022-08-07T05:09:45.633Z,100.00
2022-08-07T05:12:31.124Z,100.00
2022-08-07T05:15:23.464Z,100.00
2022-08-07T05:18:09.044Z,100.00
2022-08-07T05:20:43.459Z,100.00
2022-08-07T05:23:23.171Z,100.00
2022-08-07T05:26:13.890Z,100.00
2022-08-07T05:28:53.014Z,100.00
2022-08-07T05:31:35.202Z,100.00
2022-08-07T05:34:12.565Z,100.00
2022-08-07T05:36:49.038Z,100.00
2022-08-07T05:40:05.842Z,100.00
2022-08-07T05:42:34.640Z,100.00
2022-08-07T05:45:14.870Z,100.00
2022-08-07T05:48:03.099Z,100.00
2022-08-07T05:50:43.317Z,100.00
2022-08-07T05:54:09.428Z,100.00
2022-08-07T05:56:09.473Z,100.00
2022-08-07T05:58:52.735Z,97.16
2022-08-07T06:01:26.044Z,92.40
2022-08-07T06:04:01.107Z,90.90
2022-08-07T06:06:38.283Z,79.63
2022-08-07T06:09:18.261Z,71.63
2022-08-07T06:11:51.257Z,68.83
2022-08-07T06:14:28.526Z,75.13
2022-08-07T06:17:02.429Z,71.73
2022-08-07T06:19:47.938Z,68.53
2022-08-07T06:22:36.907Z,75.48
2022-08-07T06:25:21.355Z,90.29
2022-08-07T06:28:01.467Z,91.44
2022-08-07T06:30:37.223Z,96.06
2022-08-07T06:33:16.121Z,100.00
2022-08-07T06:36:12.061Z,100.00
2022-08-07T06:38:39.174Z,100.00
2022-08-07T06:41:47.648Z,100.00
2022-08-07T06:44:17.817Z,100.00
2022-08-07T06:46:53.596Z,100.00
2022-08-07T06:49:50.931Z,100.00
2022-08-07T06:52:31.597Z,100.00
2022-08-07T06:55:33.377Z,100.00
2022-08-07T06:58:05.261Z,100.00
2022-08-07T07:00:53.075Z,100.00
2022-08-07T07:03:39.504Z,100.00
2022-08-07T07:06:11.206Z,100.00
2022-08-07T07:08:46.605Z,100.00
2022-08-07T07:12:07.403Z,100.00
2022-08-07T07:14:08.429Z,100.00
2022-08-07T07:16:50.529Z,100.00
2022-08-07T07:19:57.204Z,100.00
2022-08-07T07:22:36.908Z,96.89
2022-08-07T07:26:31.670Z,97.60
2022-08-07T07:28:03.083Z,97.11
2022-08-07T07:30:39.717Z,96.49
2022-08-07T07:33:13.509Z,96.36
2022-08-07T07:36:03.742Z,94.26
2022-08-07T07:38:35.984Z,95.79
2022-08-07T07:41:09.292Z,92.54
2022-08-07T07:44:14.881Z,91.54
2022-08-07T07:46:37.406Z,89.56
2022-08-07T07:50:35.167Z,89.39
2022-08-07T07:52:16.913Z,92.67
2022-08-07T07:54:50.671Z,87.63
2022-08-07T07:57:43.708Z,90.73
2022-08-07T08:00:29.028Z,91.45
2022-08-07T08:03:08.439Z,93.33
2022-08-07T08:05:54.131Z,86.92
2022-08-07T08:08:35.584Z,86.67
2022-08-07T08:11:16.206Z,85.72
2022-08-07T08:13:53.890Z,84.16
2022-08-07T08:16:31.117Z,86.09
2022-08-07T08:19:09.905Z,82.16
2022-08-07T08:22:11.922Z,79.94
2022-08-07T08:25:18.907Z,75.98
2022-08-07T08:27:56.205Z,74.62
2022-08-07T08:30:29.174Z,72.13
2022-08-07T08:33:03.027Z,68.94
2022-08-07T08:35:42.909Z,70.78
2022-08-07T08:38:20.800Z,68.42
2022-08-07T08:40:57.266Z,67.61
2022-08-07T08:43:42.696Z,63.02
2022-08-07T08:46:38.441Z,60.06
2022-08-07T08:49:32.895Z,54.69
2022-08-07T08:52:13.677Z,53.31
2022-08-07T08:54:54.995Z,51.74
2022-08-07T08:57:34.592Z,49.74
2022-08-07T09:00:08.310Z,52.02
2022-08-07T09:02:49.473Z,54.54
2022-08-07T09:05:38.496Z,52.82
2022-08-07T09:08:31.162Z,49.78
2022-08-07T09:11:24.837Z,47.96
2022-08-07T09:14:29.564Z,47.38
2022-08-07T09:17:11.886Z,43.81
2022-08-07T09:19:59.099Z,44.81
2022-08-07T09:24:38.846Z,44.41
2022-08-07T09:25:54.872Z,44.98
2022-08-07T09:30:01.863Z,43.43
2022-08-07T09:31:39.029Z,43.99
2022-08-07T09:34:26.171Z,43.71
2022-08-07T09:37:04.794Z,46.08
2022-08-07T09:39:55.289Z,45.33
2022-08-07T09:42:48.010Z,43.40
2022-08-07T09:47:50.786Z,43.83
2022-08-07T09:48:30.878Z,44.34
2022-08-07T09:52:16.021Z,43.22
2022-08-07T09:54:33.208Z,42.04
2022-08-07T09:57:36.559Z,42.93
2022-08-07T10:00:14.401Z,42.81
2022-08-07T10:04:06.579Z,43.82
2022-08-07T10:07:39.926Z,42.50
2022-08-07T10:10:22.907Z,43.47
2022-08-07T10:13:29.881Z,43.37
2022-08-07T10:16:23.040Z,43.36
2022-08-07T10:19:23.785Z,43.68
2022-08-07T10:22:16.157Z,41.58
2022-08-07T10:25:03.706Z,40.65
2022-08-07T10:27:56.079Z,41.53
2022-08-07T10:30:37.459Z,39.07
2022-08-07T10:34:14.227Z,38.35
2022-08-07T10:36:46.362Z,36.83
2022-08-07T10:39:41.195Z,39.79
2022-08-07T10:42:31.176Z,41.28
2022-08-07T10:45:19.383Z,39.08
2022-08-07T10:48:34.890Z,38.70
2022-08-07T10:51:16.284Z,36.10
2022-08-07T10:54:02.715Z,36.18
2022-08-07T10:56:47.600Z,36.05
2022-08-07T10:59:37.278Z,37.17
2022-08-07T11:02:33.627Z,36.97
2022-08-07T11:05:35.801Z,35.83
2022-08-07T11:08:41.505Z,37.36
2022-08-07T11:11:20.184Z,37.44
2022-08-07T11:14:43.662Z,36.95
2022-08-07T11:17:01.275Z,36.40
2022-08-07T11:19:43.454Z,35.81
2022-08-07T11:22:36.996Z,35.39
2022-08-07T11:25:21.202Z,34.54
2022-08-07T11:28:05.298Z,36.44
2022-08-07T11:30:46.513Z,35.81
2022-08-07T11:33:58.482Z,36.56
2022-08-07T11:36:31.372Z,35.95
2022-08-07T11:39:14.497Z,35.55
2022-08-07T11:42:07.187Z,35.02
2022-08-07T11:45:00.055Z,36.19
2022-08-07T11:47:55.973Z,35.90
2022-08-07T11:50:57.463Z,33.81
2022-08-07T11:54:01.737Z,35.26
2022-08-07T11:56:53.236Z,34.84
2022-08-07T12:00:12.269Z,33.85
2022-08-07T12:03:41.983Z,35.20
2022-08-07T12:06:37.102Z,33.35
2022-08-07T12:09:16.672Z,34.58
2022-08-07T12:12:10.882Z,34.10
2022-08-07T12:14:55.620Z,34.18
2022-08-07T12:17:59.280Z,34.47
2022-08-07T12:20:36.910Z,33.63
2022-08-07T12:24:05.757Z,33.14
2022-08-07T12:26:29.936Z,32.16
2022-08-07T12:29:12.265Z,32.06
2022-08-07T12:32:03.867Z,32.74
2022-08-07T12:34:37.012Z,31.97
2022-08-07T12:37:16.875Z,32.12
2022-08-07T12:39:57.520Z,33.08
2022-08-07T12:42:32.209Z,33.79
2022-08-07T12:45:08.518Z,34.19
2022-08-07T12:47:49.214Z,33.45
2022-08-07T12:50:38.930Z,33.89
2022-08-07T12:53:19.472Z,33.05
2022-08-07T12:56:04.181Z,33.69
2022-08-07T12:58:42.902Z,32.79
2022-08-07T13:01:32.333Z,32.43
2022-08-07T13:04:34.253Z,32.11
2022-08-07T13:08:14.512Z,31.80
2022-08-07T13:10:52.899Z,32.12
2022-08-07T13:13:53.748Z,32.63
2022-08-07T13:16:32.697Z,30.94
2022-08-07T13:19:34.997Z,30.91
2022-08-07T13:22:19.977Z,31.75
2022-08-07T13:25:02.775Z,31.00
2022-08-07T13:28:12.985Z,31.45
2022-08-07T13:30:39.877Z,30.80
2022-08-07T13:34:32.092Z,30.32
2022-08-07T13:36:20.200Z,30.98
2022-08-07T13:39:02.648Z,31.66
2022-08-07T13:41:47.460Z,32.92
2022-08-07T13:44:25.985Z,31.25
2022-08-07T13:47:00.111Z,31.08
2022-08-07T13:50:34.238Z,31.13
2022-08-07T13:52:32.436Z,30.64
2022-08-07T13:55:19.093Z,30.48
2022-08-07T13:58:01.937Z,30.19
2022-08-07T14:00:54.334Z,30.55
2022-08-07T14:03:29.218Z,30.66
2022-08-07T14:06:17.513Z,30.87
2022-08-07T14:08:53.483Z,29.87
2022-08-07T14:11:24.281Z,30.81
2022-08-07T14:14:04.668Z,31.07
2022-08-07T14:16:41.317Z,30.94
2022-08-07T14:20:39.320Z,30.12
2022-08-07T14:22:15.691Z,30.57
2022-08-07T14:25:08.213Z,29.48
2022-08-07T14:28:10.465Z,29.53
2022-08-07T14:30:40.570Z,29.36
2022-08-07T14:33:14.914Z,30.57
2022-08-07T14:35:47.495Z,29.86
2022-08-07T14:38:30.855Z,29.49
2022-08-07T14:41:04.064Z,29.64
2022-08-07T14:43:57.949Z,29.70
2022-08-07T14:46:32.471Z,30.89
2022-08-07T14:49:17.418Z,30.36
2022-08-07T14:52:05.006Z,29.67
2022-08-07T14:54:43.161Z,29.98
2022-08-07T14:57:19.154Z,31.15
2022-08-07T15:00:06.810Z,30.94
2022-08-07T15:02:37.328Z,30.22
2022-08-07T15:08:12.579Z,31.37
2022-08-07T15:10:59.138Z,31.64
2022-08-07T15:13:37.063Z,32.21
2022-08-07T15:16:14.623Z,32.43
2022-08-07T15:18:51.555Z,32.06
2022-08-07T15:25:12.690Z,32.19
2022-08-07T15:27:15.951Z,31.96
2022-08-07T15:33:01.429Z,32.55
2022-08-07T15:36:01.718Z,32.38
2022-08-07T15:38:30.694Z,31.98
2022-08-07T15:44:04.198Z,32.75
2022-08-07T15:46:51.844Z,32.25
2022-08-07T15:50:05.449Z,31.96
2022-08-07T15:52:21.586Z,33.03
2022-08-07T15:55:02.794Z,32.49
2022-08-07T15:57:47.540Z,33.04
2022-08-07T16:00:32.214Z,33.64
2022-08-07T16:03:06.157Z,33.00
2022-08-07T16:05:40.383Z,33.55
2022-08-07T16:08:32.439Z,33.19
2022-08-07T16:11:26.545Z,33.11
2022-08-07T16:14:10.508Z,33.44
2022-08-07T16:17:03.108Z,33.58
2022-08-07T16:20:04.226Z,33.88
2022-08-07T16:23:09.833Z,33.26
2022-08-07T16:26:00.646Z,35.07
2022-08-07T16:30:06.346Z,34.34
2022-08-07T16:32:00.735Z,33.76
2022-08-07T16:34:49.511Z,34.75
2022-08-07T16:38:04.139Z,34.94
2022-08-07T16:41:22.222Z,34.89
2022-08-07T16:45:15.428Z,36.36
2022-08-07T16:48:28.743Z,36.74
2022-08-07T16:51:57.611Z,37.19
2022-08-07T16:54:33.061Z,36.94
2022-08-07T16:58:02.868Z,36.10
2022-08-07T17:00:34.556Z,37.00
2022-08-07T17:03:57.680Z,37.28
2022-08-07T17:06:45.885Z,36.86
2022-08-07T17:10:07.007Z,37.31
2022-08-07T17:12:35.088Z,36.93
2022-08-07T17:15:20.206Z,36.36
2022-08-07T17:18:04.113Z,37.03
2022-08-07T17:20:37.788Z,37.11
2022-08-07T17:23:18.213Z,38.29
2022-08-07T17:26:02.906Z,38.85
2022-08-07T17:28:49.757Z,39.07
2022-08-07T17:31:25.549Z,39.63
2022-08-07T17:34:34.578Z,39.60
2022-08-07T17:38:05.442Z,39.44
2022-08-07T17:40:07.931Z,40.50
2022-08-07T17:42:58.555Z,39.89
2022-08-07T17:45:35.561Z,39.90
2022-08-07T17:48:12.810Z,40.59
2022-08-07T17:51:01.784Z,41.46
2022-08-07T17:54:00.967Z,41.91
2022-08-07T17:56:35.649Z,42.06
2022-08-07T17:59:25.098Z,42.30
2022-08-07T18:02:05.154Z,42.79
2022-08-07T18:04:43.884Z,43.20
2022-08-07T18:07:33.980Z,43.15
2022-08-07T18:10:32.755Z,43.71
2022-08-07T18:13:16.518Z,43.48
2022-08-07T18:16:03.187Z,44.25
2022-08-07T18:21:01.579Z,44.68
2022-08-07T18:21:55.093Z,44.86
2022-08-07T18:24:37.728Z,45.44
2022-08-07T18:27:38.349Z,45.47
2022-08-07T18:30:31.818Z,46.51
2022-08-07T18:34:39.360Z,46.71
2022-08-07T18:38:53.672Z,47.15
2022-08-07T18:40:42.874Z,48.01
2022-08-07T18:43:36.941Z,47.47
2022-08-07T18:46:27.005Z,47.68
2022-08-07T18:50:31.520Z,47.93
2022-08-07T18:52:35.247Z,48.58
2022-08-07T18:55:42.501Z,48.77
2022-08-07T18:58:57.843Z,50.63
2022-08-07T19:02:32.432Z,50.32
2022-08-07T19:04:58.047Z,50.67
2022-08-07T19:07:51.707Z,52.22
2022-08-07T19:10:49.874Z,49.93
2022-08-07T19:13:27.783Z,51.19
2022-08-07T19:16:43.701Z,51.19
2022-08-07T19:19:01.219Z,51.79
2022-08-07T19:21:44.936Z,52.94
2022-08-07T19:24:30.462Z,53.41
2022-08-07T19:29:00.179Z,52.55
2022-08-07T19:30:56.401Z,55.34
2022-08-07T19:32:59.295Z,53.66
2022-08-07T19:35:33.256Z,55.11
2022-08-07T19:38:17.054Z,54.14
2022-08-07T19:40:50.395Z,55.18
2022-08-07T19:43:45.541Z,56.18
2022-08-07T19:46:19.114Z,55.13
2022-08-07T19:48:56.133Z,54.49
2022-08-07T19:51:52.680Z,54.34
2022-08-07T19:54:32.983Z,58.89
2022-08-07T19:58:03.260Z,56.88
2022-08-07T20:00:10.226Z,61.08
2022-08-07T20:02:52.248Z,57.79
2022-08-07T20:05:28.766Z,57.95
2022-08-07T20:08:03.071Z,63.01
2022-08-07T20:10:52.017Z,65.61
2022-08-07T20:13:34.037Z,65.21
2022-08-07T20:16:06.687Z,65.36
2022-08-07T20:18:47.534Z,62.55
2022-08-07T20:21:21.746Z,68.66
2022-08-07T20:24:00.200Z,66.53
2022-08-07T20:26:44.761Z,66.73
2022-08-07T20:29:47.693Z,69.48
2022-08-07T20:32:22.319Z,71.55
2022-08-07T20:34:58.618Z,75.06
2022-08-07T20:37:34.025Z,70.52
2022-08-07T20:40:32.407Z,75.78
2022-08-07T20:42:57.907Z,77.71
2022-08-07T20:45:33.106Z,74.91
2022-08-07T20:48:30.249Z,79.82
2022-08-07T20:51:01.678Z,74.45
2022-08-07T20:54:03.851Z,78.95
2022-08-07T20:56:27.693Z,85.25
2022-08-07T20:59:02.508Z,78.55
2022-08-07T21:01:45.361Z,76.85
2022-08-07T21:04:22.422Z,79.19
2022-08-07T21:06:56.806Z,78.71
2022-08-07T21:09:52.785Z,83.04
2022-08-07T21:12:30.686Z,86.83
2022-08-07T21:15:05.388Z,94.70
2022-08-07T21:18:05.819Z,86.58
2022-08-07T21:20:33.533Z,88.93
2022-08-07T21:23:11.505Z,86.35
2022-08-07T21:26:01.382Z,90.30
2022-08-07T21:28:50.380Z,95.82
2022-08-07T21:32:42.539Z,89.41
2022-08-07T21:34:31.643Z,88.28
2022-08-07T21:37:09.679Z,87.36
2022-08-07T21:39:51.379Z,91.51
2022-08-07T21:42:42.605Z,90.67
2022-08-07T21:46:08.532Z,97.82
2022-08-07T21:48:33.650Z,100.00
2022-08-07T21:51:20.463Z,100.00
2022-08-07T21:54:09.190Z,100.00
2022-08-07T21:56:49.151Z,99.91
2022-08-07T22:00:02.754Z,100.00
2022-08-07T22:02:30.815Z,97.23
2022-08-07T22:05:03.917Z,96.69
2022-08-07T22:07:58.040Z,100.00
2022-08-07T22:10:35.440Z,100.00
2022-08-07T22:13:09.319Z,100.00
2022-08-07T22:16:40.234Z,100.00
2022-08-07T22:18:45.592Z,100.00
2022-08-07T22:21:20.476Z,100.00
2022-08-07T22:23:58.320Z,100.00
2022-08-07T22:26:44.282Z,100.00
2022-08-07T22:29:37.995Z,100.00
2022-08-07T22:32:21.628Z,100.00
2022-08-07T22:34:56.057Z,100.00
2022-08-07T22:38:04.665Z,100.00
2022-08-07T22:40:45.773Z,100.00
2022-08-07T22:43:23.475Z,100.00
2022-08-07T22:47:02.061Z,100.00
2022-08-07T22:49:54.196Z,100.00
2022-08-07T22:53:26.830Z,100.00
2022-08-07T22:56:17.477Z,100.00
2022-08-07T22:59:21.957Z,100.00
2022-08-07T23:02:08.354Z,100.00
2022-08-07T23:06:06.968Z,100.00
2022-08-07T23:08:04.837Z,100.00
2022-08-07T23:11:12.836Z,100.00
2022-08-07T23:14:14.973Z,100.00
2022-08-07T23:17:05.367Z,100.00
2022-08-07T23:20:09.277Z,100.00
2022-08-07T23:22:54.029Z,100.00
2022-08-07T23:25:36.440Z,100.00
2022-08-07T23:28:44.327Z,100.00
2022-08-07T23:32:49.273Z,100.00
2022-08-07T23:34:57.253Z,100.00
2022-08-07T23:38:01.341Z,100.00
2022-08-07T23:40:39.637Z,100.00
2022-08-07T23:43:46.123Z,100.00
2022-08-07T23:47:11.629Z,100.00
2022-08-07T23:50:17.013Z,100.00
2022-08-07T23:53:06.749Z,100.00
2022-08-07T23:55:52.894Z,100.00
2022-08-07T23:58:34.998Z,100.00
